createdAt,value
2022-10-22T00:01:55.019Z,100903.06
2022-10-22T00:04:21.337Z,100908.72
2022-10-22T00:06:47.722Z,100910.56
2022-10-22T00:09:14.771Z,100913.38
2022-10-22T00:11:42.000Z,100920.66
2022-10-22T00:14:08.702Z,100913.84
2022-10-22T00:16:35.059Z,100904.19
2022-10-22T00:19:01.432Z,100924.38
2022-10-22T00:21:27.797Z,100923.19
2022-10-22T00:23:54.137Z,100927.84
2022-10-22T00:26:20.625Z,100936.75
2022-10-22T00:28:46.974Z,100931.50
2022-10-22T00:31:13.399Z,100938.97
2022-10-22T00:33:39.762Z,100929.53
2022-10-22T00:36:06.432Z,100934.75
2022-10-22T00:38:33.224Z,100936.78
2022-10-22T00:40:59.537Z,100928.13
2022-10-22T00:43:27.129Z,100928.72
2022-10-22T00:45:53.498Z,100920.69
2022-10-22T00:48:26.905Z,100919.91
2022-10-22T00:51:13.840Z,100927.13
2022-10-22T00:53:45.706Z,100931.94
2022-10-22T00:56:12.166Z,100923.91
2022-10-22T00:58:47.265Z,100938.81
2022-10-22T01:01:18.753Z,100943.66
2022-10-22T01:03:45.273Z,100932.19
2022-10-22T01:06:18.868Z,100943.66
2022-10-22T01:08:50.878Z,100943.88
2022-10-22T01:11:32.279Z,100949.31
2022-10-22T01:14:08.042Z,100938.81
2022-10-22T01:16:48.904Z,100940.41
2022-10-22T01:19:55.204Z,100932.19
2022-10-22T01:22:27.257Z,100944.63
2022-10-22T01:25:17.698Z,100935.75
2022-10-22T01:28:00.691Z,100944.44
2022-10-22T01:30:27.348Z,100937.78
2022-10-22T01:32:59.166Z,100943.59
2022-10-22T01:35:31.062Z,100942.59
2022-10-22T01:38:01.614Z,100941.16
2022-10-22T01:40:28.895Z,100935.91
2022-10-22T01:43:04.721Z,100929.25
2022-10-22T01:45:53.344Z,100921.13
2022-10-22T01:48:55.782Z,100934.22
2022-10-22T01:51:40.434Z,100944.53
2022-10-22T01:54:15.756Z,100944.28
2022-10-22T01:57:00.540Z,100936.00
2022-10-22T01:59:50.844Z,100920.84
2022-10-22T02:02:30.393Z,100922.41
2022-10-22T02:05:03.107Z,100931.63
2022-10-22T02:07:37.518Z,100926.97
2022-10-22T02:10:05.605Z,100935.41
2022-10-22T02:12:33.082Z,100924.69
2022-10-22T02:15:02.582Z,100925.28
2022-10-22T02:17:32.164Z,100931.13
2022-10-22T02:20:06.610Z,100926.72
2022-10-22T02:22:33.751Z,100922.53
2022-10-22T02:25:00.460Z,100920.34
2022-10-22T02:28:02.066Z,100934.06
2022-10-22T02:30:30.724Z,100933.06
2022-10-22T02:33:10.839Z,100939.78
2022-10-22T02:35:40.748Z,100928.28
2022-10-22T02:38:08.779Z,100929.28
2022-10-22T02:40:35.247Z,100938.78
2022-10-22T02:43:04.590Z,100934.91
2022-10-22T02:45:31.343Z,100924.03
2022-10-22T02:47:58.072Z,100931.69
2022-10-22T02:50:24.433Z,100933.72
2022-10-22T02:52:50.758Z,100931.09
2022-10-22T02:55:17.592Z,100934.53
2022-10-22T02:57:44.070Z,100941.00
2022-10-22T03:00:11.581Z,100925.31
2022-10-22T03:02:37.945Z,100941.06
2022-10-22T03:05:05.201Z,100932.59
2022-10-22T03:07:31.518Z,100932.78
2022-10-22T03:09:57.862Z,100942.25
2022-10-22T03:12:24.141Z,100938.44
2022-10-22T03:14:50.487Z,100941.91
2022-10-22T03:17:17.039Z,100936.25
2022-10-22T03:19:43.386Z,100939.09
2022-10-22T03:22:21.062Z,100942.50
2022-10-22T03:24:50.514Z,100945.72
2022-10-22T03:27:19.990Z,100934.63
2022-10-22T03:29:46.732Z,100942.50
2022-10-22T03:32:13.930Z,100950.53
2022-10-22T03:34:40.243Z,100939.63
2022-10-22T03:37:06.604Z,100934.63
2022-10-22T03:39:34.834Z,100939.63
2022-10-22T03:42:01.959Z,100943.28
2022-10-22T03:44:28.534Z,100952.75
2022-10-22T03:46:58.608Z,100955.03
2022-10-22T03:49:28.002Z,100941.91
2022-10-22T03:51:54.302Z,100946.78
2022-10-22T03:54:20.676Z,100952.25
2022-10-22T03:56:47.007Z,100943.78
2022-10-22T03:59:13.443Z,100944.81
2022-10-22T04:01:39.750Z,100953.28
2022-10-22T04:04:06.105Z,100955.53
2022-10-22T04:06:32.391Z,100951.25
2022-10-22T04:08:59.393Z,100957.31
2022-10-22T04:11:25.848Z,100941.16
2022-10-22T04:13:52.192Z,100957.31
2022-10-22T04:16:24.998Z,100952.84
2022-10-22T04:18:53.899Z,100955.63
2022-10-22T04:21:20.217Z,100937.69
2022-10-22T04:23:48.179Z,100958.00
2022-10-22T04:26:15.390Z,100966.88
2022-10-22T04:28:41.871Z,100963.25
2022-10-22T04:31:16.689Z,100969.44
2022-10-22T04:33:43.149Z,100959.97
2022-10-22T04:36:16.438Z,100964.78
2022-10-22T04:38:44.226Z,100959.78
2022-10-22T04:41:11.709Z,100965.78
2022-10-22T04:43:38.491Z,100969.41
2022-10-22T04:46:05.356Z,100965.78
2022-10-22T04:48:31.707Z,100980.91
2022-10-22T04:50:58.978Z,100966.00
2022-10-22T04:53:25.811Z,100964.59
2022-10-22T04:55:52.137Z,100963.59
2022-10-22T04:58:18.451Z,100967.84
2022-10-22T05:00:44.957Z,100968.06
2022-10-22T05:03:11.319Z,100984.22
2022-10-22T05:05:37.657Z,100975.13
2022-10-22T05:08:04.142Z,100969.09
2022-10-22T05:10:30.448Z,100978.56
2022-10-22T05:12:56.740Z,100969.69
2022-10-22T05:15:23.078Z,100981.38
2022-10-22T05:17:49.365Z,100976.13
2022-10-22T05:20:15.874Z,100979.78
2022-10-22T05:22:42.195Z,100970.72
2022-10-22T05:25:08.657Z,100977.38
2022-10-22T05:27:35.291Z,100977.56
2022-10-22T05:30:01.619Z,100970.97
2022-10-22T05:32:27.973Z,100981.28
2022-10-22T05:34:54.299Z,100964.75
2022-10-22T05:37:20.632Z,100980.44
2022-10-22T05:39:46.938Z,100980.88
2022-10-22T05:42:13.243Z,100978.06
2022-10-22T05:44:39.600Z,100977.66
2022-10-22T05:47:05.908Z,100982.91
2022-10-22T05:49:32.349Z,100997.06
2022-10-22T05:51:58.700Z,100996.63
2022-10-22T05:54:25.052Z,100991.81
2022-10-22T05:56:51.355Z,100998.47
2022-10-22T05:59:17.741Z,101008.34
2022-10-22T06:01:44.276Z,100998.91
2022-10-22T06:04:12.570Z,101000.91
2022-10-22T06:06:51.190Z,100994.88
2022-10-22T06:09:24.521Z,101007.00
2022-10-22T06:11:51.845Z,101002.34
2022-10-22T06:14:19.160Z,101015.47
2022-10-22T06:16:45.945Z,101019.28
2022-10-22T06:19:16.974Z,101025.50
2022-10-22T06:21:44.150Z,101014.66
2022-10-22T06:24:11.322Z,101019.06
2022-10-22T06:26:37.751Z,101027.09
2022-10-22T06:29:04.541Z,101013.22
2022-10-22T06:31:31.202Z,101028.28
2022-10-22T06:33:57.617Z,101037.38
2022-10-22T06:36:24.362Z,101038.34
2022-10-22T06:38:55.446Z,101036.13
2022-10-22T06:41:24.401Z,101036.72
2022-10-22T06:43:53.657Z,101040.13
2022-10-22T06:46:21.441Z,101042.94
2022-10-22T06:48:57.882Z,101053.00
2022-10-22T06:51:25.589Z,101052.75
2022-10-22T06:53:53.371Z,101063.22
2022-10-22T06:56:21.918Z,101065.41
2022-10-22T06:58:49.931Z,101067.56
2022-10-22T07:01:18.471Z,101066.69
2022-10-22T07:03:45.115Z,101072.28
2022-10-22T07:06:13.717Z,101078.06
2022-10-22T07:08:41.217Z,101074.19
2022-10-22T07:11:20.660Z,101075.75
2022-10-22T07:13:47.759Z,101076.75
2022-10-22T07:16:15.656Z,101076.88
2022-10-22T07:18:42.433Z,101083.50
2022-10-22T07:21:10.353Z,101095.72
2022-10-22T07:23:37.462Z,101089.75
2022-10-22T07:26:05.066Z,101095.94
2022-10-22T07:28:31.425Z,101101.00
2022-10-22T07:30:57.783Z,101102.03
2022-10-22T07:33:24.208Z,101106.69
2022-10-22T07:35:50.534Z,101117.16
2022-10-22T07:38:16.888Z,101126.59
2022-10-22T07:40:43.218Z,101123.94
2022-10-22T07:43:09.583Z,101125.38
2022-10-22T07:45:36.066Z,101128.69
2022-10-22T07:48:02.426Z,101126.19
2022-10-22T07:50:28.947Z,101136.56
2022-10-22T07:52:57.456Z,101141.59
2022-10-22T07:55:24.808Z,101131.28
2022-10-22T07:57:51.282Z,101136.78
2022-10-22T08:00:20.444Z,101134.50
2022-10-22T08:02:49.432Z,101130.47
2022-10-22T08:05:15.825Z,101144.84
2022-10-22T08:07:43.113Z,101137.25
2022-10-22T08:10:10.558Z,101147.03
2022-10-22T08:12:37.582Z,101153.91
2022-10-22T08:15:04.602Z,101154.25
2022-10-22T08:17:30.968Z,101150.34
2022-10-22T08:19:57.294Z,101153.69
2022-10-22T08:22:23.712Z,101141.75
2022-10-22T08:24:50.073Z,101161.59
2022-10-22T08:27:16.575Z,101160.91
2022-10-22T08:29:43.057Z,101161.81
2022-10-22T08:32:09.390Z,101161.91
2022-10-22T08:34:35.783Z,101173.19
2022-10-22T08:37:02.143Z,101169.63
2022-10-22T08:39:28.644Z,101164.34
2022-10-22T08:42:16.568Z,101177.31
2022-10-22T08:44:55.421Z,101172.69
2022-10-22T08:47:53.189Z,101181.28
2022-10-22T08:50:26.979Z,101174.09
2022-10-22T08:52:58.777Z,101178.06
2022-10-22T08:55:25.819Z,101190.03
2022-10-22T08:58:13.737Z,101181.50
2022-10-22T09:00:50.018Z,101191.97
2022-10-22T09:03:49.906Z,101195.88
2022-10-22T09:06:23.639Z,101200.03
2022-10-22T09:08:51.040Z,101202.13
2022-10-22T09:11:28.620Z,101171.28
2022-10-22T09:13:57.209Z,101205.47
2022-10-22T09:16:32.198Z,101201.69
2022-10-22T09:19:17.295Z,101215.72
2022-10-22T09:22:25.174Z,101214.56
2022-10-22T09:24:58.437Z,101217.38
2022-10-22T09:27:30.549Z,101221.03
2022-10-22T09:29:56.989Z,101220.38
2022-10-22T09:32:23.666Z,101224.38
2022-10-22T09:34:50.534Z,101218.97
2022-10-22T09:37:19.686Z,101232.53
2022-10-22T09:39:50.817Z,101239.81
2022-10-22T09:42:19.565Z,101240.50
2022-10-22T09:44:58.024Z,101232.25
2022-10-22T09:47:43.464Z,101244.19
2022-10-22T09:50:36.850Z,101245.91
2022-10-22T09:53:14.122Z,101250.72
2022-10-22T09:55:42.262Z,101242.69
2022-10-22T09:58:12.991Z,101253.94
2022-10-22T10:00:45.590Z,101253.81
2022-10-22T10:03:21.278Z,101263.69
2022-10-22T10:05:51.389Z,101260.97
2022-10-22T10:08:17.983Z,101273.25
2022-10-22T10:10:48.847Z,101277.47
2022-10-22T10:13:26.982Z,101267.38
2022-10-22T10:16:08.135Z,101270.81
2022-10-22T10:18:46.074Z,101280.09
2022-10-22T10:22:00.541Z,101285.59
2022-10-22T10:24:45.490Z,101288.78
2022-10-22T10:27:40.105Z,101288.03
2022-10-22T10:30:14.890Z,101290.63
2022-10-22T10:33:08.340Z,101296.81
2022-10-22T10:36:19.107Z,101300.06
2022-10-22T10:38:56.893Z,101300.56
2022-10-22T10:41:39.535Z,101312.00
2022-10-22T10:44:21.880Z,101309.63
2022-10-22T10:47:15.477Z,101309.63
2022-10-22T10:49:43.368Z,101307.94
2022-10-22T10:52:29.312Z,101300.69
2022-10-22T10:55:20.094Z,101320.88
2022-10-22T10:58:12.350Z,101308.31
2022-10-22T11:00:50.553Z,101312.41
2022-10-22T11:03:46.187Z,101309.69
2022-10-22T11:06:15.395Z,101308.97
2022-10-22T11:08:50.553Z,101311.88
2022-10-22T11:11:22.891Z,101311.13
2022-10-22T11:13:57.719Z,101319.97
2022-10-22T11:16:31.529Z,101313.25
2022-10-22T11:18:57.793Z,101323.50
2022-10-22T11:21:51.571Z,101319.47
2022-10-22T11:24:43.159Z,101321.25
2022-10-22T11:27:21.958Z,101323.25
2022-10-22T11:29:54.746Z,101320.44
2022-10-22T11:32:23.057Z,101324.75
2022-10-22T11:34:53.242Z,101317.38
2022-10-22T11:37:21.920Z,101326.69
2022-10-22T11:39:53.941Z,101326.69
2022-10-22T11:42:33.445Z,101323.16
2022-10-22T11:45:14.839Z,101321.44
2022-10-22T11:47:56.547Z,101326.97
2022-10-22T11:50:25.357Z,101323.84
2022-10-22T11:53:17.715Z,101320.47
2022-10-22T11:56:06.766Z,101322.88
2022-10-22T11:58:40.062Z,101329.66
2022-10-22T12:01:09.433Z,101327.00
2022-10-22T12:03:40.744Z,101328.84
2022-10-22T12:06:09.793Z,101319.66
2022-10-22T12:08:43.767Z,101323.66
2022-10-22T12:11:10.038Z,101318.44
2022-10-22T12:14:03.342Z,101327.50
2022-10-22T12:16:55.046Z,101324.88
2022-10-22T12:19:22.262Z,101324.06
2022-10-22T12:22:12.262Z,101328.78
2022-10-22T12:24:41.701Z,101315.66
2022-10-22T12:27:22.432Z,101326.19
2022-10-22T12:29:54.027Z,101333.13
2022-10-22T12:32:20.405Z,101332.31
2022-10-22T12:37:17.437Z,101328.31
2022-10-22T12:39:45.535Z,101322.53
2022-10-22T12:42:17.105Z,101338.00
2022-10-22T12:44:44.883Z,101335.03
2022-10-22T12:47:16.324Z,101329.53
2022-10-22T12:49:47.097Z,101338.47
2022-10-22T12:52:18.325Z,101340.97
2022-10-22T12:54:47.796Z,101339.41
2022-10-22T12:57:17.044Z,101333.41
2022-10-22T12:59:51.517Z,101330.41
2022-10-22T13:02:26.459Z,101342.31
2022-10-22T13:05:16.123Z,101338.91
2022-10-22T13:07:46.885Z,101348.28
2022-10-22T13:10:25.041Z,101342.22
2022-10-22T13:12:55.437Z,101354.53
2022-10-22T13:15:27.502Z,101355.19
2022-10-22T13:18:14.523Z,101350.66
2022-10-22T13:20:53.984Z,101344.91
2022-10-22T13:23:23.703Z,101343.13
2022-10-22T13:26:03.833Z,101355.16
2022-10-22T13:28:33.133Z,101344.63
2022-10-22T13:31:11.415Z,101356.16
2022-10-22T13:33:40.952Z,101347.00
2022-10-22T13:36:13.061Z,101350.84
2022-10-22T13:38:39.432Z,101354.03
2022-10-22T13:41:18.837Z,101356.16
2022-10-22T13:43:45.145Z,101346.75
2022-10-22T13:46:11.494Z,101356.25
2022-10-22T13:48:38.561Z,101366.88
2022-10-22T13:51:13.566Z,101361.66
2022-10-22T13:53:39.952Z,101361.28
2022-10-22T13:56:06.294Z,101376.53
2022-10-22T13:58:32.668Z,101368.25
2022-10-22T14:00:59.720Z,101365.13
2022-10-22T14:03:33.018Z,101373.47
2022-10-22T14:06:00.118Z,101368.97
2022-10-22T14:08:27.801Z,101378.63
2022-10-22T14:10:54.943Z,101375.41
2022-10-22T14:13:21.571Z,101376.53
2022-10-22T14:15:50.084Z,101367.22
2022-10-22T14:18:21.604Z,101369.78
2022-10-22T14:20:47.922Z,101372.56
2022-10-22T14:23:20.458Z,101376.34
2022-10-22T14:25:48.157Z,101372.16
2022-10-22T14:28:14.486Z,101371.44
2022-10-22T14:30:41.926Z,101371.22
2022-10-22T14:33:27.208Z,101374.50
2022-10-22T14:35:58.098Z,101364.66
2022-10-22T14:38:24.417Z,101372.69
2022-10-22T14:40:50.974Z,101372.22
2022-10-22T14:43:22.214Z,101366.47
2022-10-22T14:45:49.171Z,101365.50
2022-10-22T14:48:15.714Z,101371.72
2022-10-22T14:50:43.754Z,101375.50
2022-10-22T14:53:10.373Z,101376.28
2022-10-22T14:55:36.969Z,101380.44
2022-10-22T14:58:03.287Z,101378.28
2022-10-22T15:00:29.705Z,101385.75
2022-10-22T15:02:56.135Z,101389.69
2022-10-22T15:05:22.510Z,101398.66
2022-10-22T15:07:48.851Z,101390.97
2022-10-22T15:10:15.175Z,101402.59
2022-10-22T15:12:41.477Z,101402.03
2022-10-22T15:15:08.323Z,101414.59
2022-10-22T15:17:34.752Z,101414.00
2022-10-22T15:20:01.267Z,101414.94
2022-10-22T15:22:27.602Z,101414.88
2022-10-22T15:24:54.029Z,101428.47
2022-10-22T15:27:20.355Z,101425.66
2022-10-22T15:29:46.676Z,101424.44
2022-10-22T15:32:13.036Z,101427.53
2022-10-22T15:34:40.276Z,101426.63
2022-10-22T15:37:12.831Z,101425.38
2022-10-22T15:39:40.710Z,101429.03
2022-10-22T15:42:07.323Z,101431.03
2022-10-22T15:44:33.892Z,101430.88
2022-10-22T15:47:03.674Z,101426.16
2022-10-22T15:49:30.027Z,101444.91
2022-10-22T15:51:56.575Z,101436.50
2022-10-22T15:54:26.255Z,101441.66
2022-10-22T15:56:52.548Z,101429.84
2022-10-22T15:59:19.134Z,101439.59
2022-10-22T16:01:45.715Z,101437.06
2022-10-22T16:04:12.355Z,101450.16
2022-10-22T16:06:43.376Z,101442.56
2022-10-22T16:09:12.775Z,101443.47
2022-10-22T16:11:39.576Z,101446.94
2022-10-22T16:14:06.597Z,101450.75
2022-10-22T16:16:35.136Z,101448.41
2022-10-22T16:19:02.114Z,101452.97
2022-10-22T16:21:28.790Z,101454.06
2022-10-22T16:23:55.153Z,101455.06
2022-10-22T16:26:21.615Z,101461.81
2022-10-22T16:28:48.567Z,101459.47
2022-10-22T16:31:17.401Z,101443.31
2022-10-22T16:33:46.460Z,101459.25
2022-10-22T16:36:19.223Z,101455.06
2022-10-22T16:38:46.485Z,101448.91
2022-10-22T16:41:15.092Z,101448.59
2022-10-22T16:43:42.716Z,101444.84
2022-10-22T16:46:11.043Z,101452.44
2022-10-22T16:48:37.649Z,101455.56
2022-10-22T16:51:09.160Z,101455.06
2022-10-22T16:53:36.186Z,101459.94
2022-10-22T16:56:02.829Z,101467.53
2022-10-22T16:58:29.503Z,101467.41
2022-10-22T17:00:55.890Z,101464.03
2022-10-22T17:03:24.538Z,101466.72
2022-10-22T17:05:53.892Z,101470.78
2022-10-22T17:08:20.223Z,101467.63
2022-10-22T17:10:46.617Z,101471.28
2022-10-22T17:13:13.006Z,101469.31
2022-10-22T17:15:39.308Z,101478.44
2022-10-22T17:18:25.594Z,101480.88
2022-10-22T17:20:51.896Z,101486.53
2022-10-22T17:23:18.248Z,101489.22
2022-10-22T17:25:44.921Z,101487.41
2022-10-22T17:28:11.678Z,101503.00
2022-10-22T17:30:38.606Z,101503.81
2022-10-22T17:33:08.707Z,101503.84
2022-10-22T17:35:39.207Z,101503.88
2022-10-22T17:38:06.486Z,101497.78
2022-10-22T17:40:35.253Z,101487.28
2022-10-22T17:43:01.590Z,101496.59
2022-10-22T17:45:27.874Z,101490.53
2022-10-22T17:47:54.187Z,101504.28
2022-10-22T17:50:20.493Z,101494.97
2022-10-22T17:52:46.807Z,101497.38
2022-10-22T17:55:13.335Z,101509.28
2022-10-22T17:57:39.811Z,101501.00
2022-10-22T18:00:06.759Z,101505.44
2022-10-22T18:02:33.086Z,101509.06
2022-10-22T18:04:59.400Z,101505.25
2022-10-22T18:07:25.680Z,101508.50
2022-10-22T18:09:51.999Z,101515.97
2022-10-22T18:12:18.342Z,101521.22
2022-10-22T18:14:44.980Z,101522.44
2022-10-22T18:17:12.217Z,101519.19
2022-10-22T18:19:38.580Z,101525.00
2022-10-22T18:22:04.927Z,101527.25
2022-10-22T18:24:31.219Z,101519.97
2022-10-22T18:26:57.524Z,101510.25
2022-10-22T18:29:23.870Z,101514.13
2022-10-22T18:31:50.230Z,101512.66
2022-10-22T18:34:19.075Z,101505.38
2022-10-22T18:36:48.120Z,101507.97
2022-10-22T18:39:15.558Z,101516.84
2022-10-22T18:41:42.029Z,101517.81
2022-10-22T18:44:08.621Z,101521.41
2022-10-22T18:46:35.113Z,101521.81
2022-10-22T18:49:01.553Z,101513.34
2022-10-22T18:51:29.758Z,101506.44
2022-10-22T18:54:05.808Z,101518.13
2022-10-22T18:56:43.288Z,101510.97
2022-10-22T18:59:18.313Z,101524.91
2022-10-22T19:01:44.641Z,101530.16
2022-10-22T19:04:12.729Z,101533.78
2022-10-22T19:06:44.301Z,101529.75
2022-10-22T19:09:12.941Z,101536.00
2022-10-22T19:11:39.281Z,101528.13
2022-10-22T19:14:05.735Z,101536.78
2022-10-22T19:16:32.085Z,101523.66
2022-10-22T19:19:02.407Z,101517.81
2022-10-22T19:21:29.135Z,101528.53
2022-10-22T19:23:56.726Z,101527.53
2022-10-22T19:26:23.492Z,101511.94
2022-10-22T19:28:50.063Z,101528.34
2022-10-22T19:31:21.425Z,101518.41
2022-10-22T19:33:48.368Z,101515.19
2022-10-22T19:36:16.971Z,101518.41
2022-10-22T19:38:46.081Z,101521.03
2022-10-22T19:41:15.706Z,101517.19
2022-10-22T19:43:43.895Z,101530.53
2022-10-22T19:46:10.627Z,101514.53
2022-10-22T19:48:37.725Z,101523.78
2022-10-22T19:51:10.154Z,101512.03
2022-10-22T19:53:38.639Z,101512.41
2022-10-22T19:56:06.904Z,101514.66
2022-10-22T19:58:33.671Z,101517.06
2022-10-22T20:01:07.867Z,101502.53
2022-10-22T20:03:34.926Z,101503.81
2022-10-22T20:06:01.256Z,101513.72
2022-10-22T20:08:27.574Z,101509.72
2022-10-22T20:10:54.111Z,101506.69
2022-10-22T20:13:20.785Z,101500.28
2022-10-22T20:15:48.205Z,101500.28
2022-10-22T20:18:14.943Z,101496.59
2022-10-22T20:20:41.325Z,101504.47
2022-10-22T20:23:07.631Z,101514.78
2022-10-22T20:25:35.025Z,101514.13
2022-10-22T20:28:02.475Z,101513.13
2022-10-22T20:30:28.773Z,101521.97
2022-10-22T20:32:55.137Z,101527.22
2022-10-22T20:35:21.442Z,101516.66
2022-10-22T20:37:47.741Z,101523.88
2022-10-22T20:40:14.090Z,101519.63
2022-10-22T20:42:40.860Z,101529.53
2022-10-22T20:45:08.031Z,101528.28
2022-10-22T20:47:44.694Z,101535.38
2022-10-22T20:50:19.770Z,101524.84
2022-10-22T20:52:46.071Z,101526.03
2022-10-22T20:55:17.242Z,101519.81
2022-10-22T20:57:43.945Z,101509.81
2022-10-22T21:00:11.087Z,101524.56
2022-10-22T21:02:37.386Z,101529.00
2022-10-22T21:05:03.829Z,101525.56
2022-10-22T21:07:30.158Z,101520.44
2022-10-22T21:09:56.501Z,101509.13
2022-10-22T21:12:22.803Z,101525.69
2022-10-22T21:14:49.120Z,101516.41
2022-10-22T21:17:15.438Z,101518.59
2022-10-22T21:19:41.777Z,101522.84
2022-10-22T21:22:08.103Z,101515.53
2022-10-22T21:24:34.393Z,101504.19
2022-10-22T21:27:00.702Z,101517.75
2022-10-22T21:29:27.148Z,101517.09
2022-10-22T21:31:53.486Z,101523.34
2022-10-22T21:34:19.771Z,101522.66
2022-10-22T21:39:13.409Z,101527.34
2022-10-22T21:41:39.748Z,101510.91
2022-10-22T21:44:06.349Z,101510.63
2022-10-22T21:46:32.721Z,101519.84
2022-10-22T21:49:01.983Z,101535.75
2022-10-22T21:51:30.611Z,101531.06
2022-10-22T21:53:57.209Z,101546.66
2022-10-22T21:56:26.963Z,101536.59
2022-10-22T21:58:53.629Z,101542.44
2022-10-22T22:01:20.708Z,101544.84
2022-10-22T22:03:48.801Z,101524.66
2022-10-22T22:06:21.101Z,101529.09
2022-10-22T22:08:48.604Z,101540.00
2022-10-22T22:11:17.840Z,101538.75
2022-10-22T22:13:44.699Z,101530.91
2022-10-22T22:16:14.192Z,101542.81
2022-10-22T22:18:41.255Z,101539.19
2022-10-22T22:21:10.881Z,101537.56
2022-10-22T22:23:38.871Z,101539.38
2022-10-22T22:26:05.790Z,101533.13
2022-10-22T22:28:33.125Z,101540.81
2022-10-22T22:30:59.593Z,101531.97
2022-10-22T22:33:26.504Z,101531.75
2022-10-22T22:35:53.202Z,101536.06
2022-10-22T22:38:19.554Z,101526.78
2022-10-22T22:40:45.864Z,101523.81
2022-10-22T22:43:12.202Z,101524.84
2022-10-22T22:45:38.515Z,101523.69
2022-10-22T22:48:04.913Z,101517.09
2022-10-22T22:50:31.272Z,101519.25
2022-10-22T22:52:57.581Z,101519.44
2022-10-22T22:55:24.009Z,101508.72
2022-10-22T22:57:50.384Z,101509.59
2022-10-22T23:00:16.958Z,101501.09
2022-10-22T23:02:43.690Z,101507.59
2022-10-22T23:05:10.279Z,101499.69
2022-10-22T23:07:36.612Z,101492.63
2022-10-22T23:10:03.363Z,101491.25
2022-10-22T23:12:29.732Z,101491.25
2022-10-22T23:14:56.047Z,101485.03
2022-10-22T23:17:22.352Z,101491.50
2022-10-22T23:19:48.690Z,101484.00
2022-10-22T23:22:15.067Z,101482.59
2022-10-22T23:24:41.408Z,101492.50
2022-10-22T23:27:07.808Z,101478.94
2022-10-22T23:29:34.859Z,101477.97
2022-10-22T23:32:03.048Z,101488.53
2022-10-22T23:34:30.584Z,101476.78
2022-10-22T23:36:59.404Z,101474.34
2022-10-22T23:39:27.742Z,101473.09
2022-10-22T23:41:54.690Z,101470.06
2022-10-22T23:44:21.904Z,101465.56
2022-10-22T23:46:48.307Z,101475.66
2022-10-22T23:49:15.765Z,101474.84
2022-10-22T23:51:42.137Z,101464.94
2022-10-22T23:54:12.683Z,101468.81
2022-10-22T23:56:39.042Z,101474.09
2022-10-22T23:59:06.626Z,101470.91
